sensor_id;sensor_type;location;lat;lon;timestamp;P1;durP1;ratioP1;P2;durP2;ratioP2
14748;SDS011;7466;53.574;9.976;2023-05-14T00:00:12;6.20;;;4.70;;
14748;SDS011;7466;53.574;9.976;2023-05-14T00:02:43;5.37;;;4.90;;
14748;SDS011;7466;53.574;9.976;2023-05-14T00:05:10;5.37;;;4.80;;
14748;SDS011;7466;53.574;9.976;2023-05-14T00:07:40;5.23;;;4.67;;
14748;SDS011;7466;53.574;9.976;2023-05-14T00:10:09;5.03;;;4.53;;
14748;SDS011;7466;53.574;9.976;2023-05-14T00:12:36;5.20;;;4.80;;
14748;SDS011;7466;53.574;9.976;2023-05-14T00:15:03;5.30;;;4.80;;
14748;SDS011;7466;53.574;9.976;2023-05-14T00:17:32;6.20;;;4.83;;
14748;SDS011;7466;53.574;9.976;2023-05-14T00:19:59;5.53;;;4.80;;
14748;SDS011;7466;53.574;9.976;2023-05-14T00:22:26;6.43;;;5.10;;
14748;SDS011;7466;53.574;9.976;2023-05-14T00:24:54;6.37;;;5.30;;
14748;SDS011;7466;53.574;9.976;2023-05-14T00:27:22;5.43;;;5.00;;
14748;SDS011;7466;53.574;9.976;2023-05-14T00:29:51;7.90;;;4.50;;
14748;SDS011;7466;53.574;9.976;2023-05-14T00:32:20;8.80;;;4.83;;
14748;SDS011;7466;53.574;9.976;2023-05-14T00:34:48;5.13;;;4.60;;
14748;SDS011;7466;53.574;9.976;2023-05-14T00:37:15;6.40;;;4.57;;
14748;SDS011;7466;53.574;9.976;2023-05-14T00:39:42;6.57;;;5.20;;
14748;SDS011;7466;53.574;9.976;2023-05-14T00:42:08;5.47;;;4.97;;
14748;SDS011;7466;53.574;9.976;2023-05-14T00:44:35;6.17;;;5.07;;
14748;SDS011;7466;53.574;9.976;2023-05-14T00:47:02;7.47;;;4.70;;
14748;SDS011;7466;53.574;9.976;2023-05-14T00:49:29;5.67;;;5.07;;
14748;SDS011;7466;53.574;9.976;2023-05-14T00:51:57;7.37;;;4.93;;
14748;SDS011;7466;53.574;9.976;2023-05-14T00:54:25;5.73;;;5.20;;
14748;SDS011;7466;53.574;9.976;2023-05-14T00:56:53;6.10;;;5.27;;
14748;SDS011;7466;53.574;9.976;2023-05-14T00:59:24;5.33;;;4.77;;
14748;SDS011;7466;53.574;9.976;2023-05-14T01:01:51;4.63;;;4.33;;
14748;SDS011;7466;53.574;9.976;2023-05-14T01:04:22;5.63;;;4.87;;
14748;SDS011;7466;53.574;9.976;2023-05-14T01:06:50;6.87;;;5.07;;
14748;SDS011;7466;53.574;9.976;2023-05-14T01:09:28;6.00;;;4.60;;
14748;SDS011;7466;53.574;9.976;2023-05-14T01:12:03;5.73;;;5.00;;
14748;SDS011;7466;53.574;9.976;2023-05-14T01:14:35;10.00;;;5.10;;
14748;SDS011;7466;53.574;9.976;2023-05-14T01:17:06;5.27;;;4.80;;
14748;SDS011;7466;53.574;9.976;2023-05-14T01:19:36;5.50;;;5.00;;
14748;SDS011;7466;53.574;9.976;2023-05-14T01:22:06;6.93;;;5.33;;
14748;SDS011;7466;53.574;9.976;2023-05-14T01:24:33;5.23;;;4.83;;
14748;SDS011;7466;53.574;9.976;2023-05-14T01:27:08;5.13;;;4.73;;
14748;SDS011;7466;53.574;9.976;2023-05-14T01:29:41;5.67;;;5.27;;
14748;SDS011;7466;53.574;9.976;2023-05-14T01:32:10;5.50;;;4.90;;
14748;SDS011;7466;53.574;9.976;2023-05-14T01:34:40;7.03;;;5.07;;
14748;SDS011;7466;53.574;9.976;2023-05-14T01:37:10;9.20;;;4.77;;
14748;SDS011;7466;53.574;9.976;2023-05-14T01:39:38;5.83;;;5.43;;
14748;SDS011;7466;53.574;9.976;2023-05-14T01:42:07;5.23;;;4.73;;
14748;SDS011;7466;53.574;9.976;2023-05-14T01:44:34;5.50;;;5.10;;
14748;SDS011;7466;53.574;9.976;2023-05-14T01:47:01;5.40;;;5.00;;
14748;SDS011;7466;53.574;9.976;2023-05-14T01:49:28;5.57;;;5.07;;
14748;SDS011;7466;53.574;9.976;2023-05-14T01:51:55;6.53;;;5.17;;
14748;SDS011;7466;53.574;9.976;2023-05-14T01:54:23;5.13;;;4.73;;
14748;SDS011;7466;53.574;9.976;2023-05-14T01:56:50;5.47;;;4.97;;
14748;SDS011;7466;53.574;9.976;2023-05-14T01:59:17;5.33;;;4.93;;
14748;SDS011;7466;53.574;9.976;2023-05-14T02:01:45;8.60;;;5.43;;
14748;SDS011;7466;53.574;9.976;2023-05-14T02:04:12;5.47;;;5.07;;
14748;SDS011;7466;53.574;9.976;2023-05-14T02:06:38;5.80;;;5.30;;
14748;SDS011;7466;53.574;9.976;2023-05-14T02:09:05;5.73;;;5.23;;
14748;SDS011;7466;53.574;9.976;2023-05-14T02:11:33;7.60;;;5.30;;
14748;SDS011;7466;53.574;9.976;2023-05-14T02:14:00;7.97;;;5.10;;
14748;SDS011;7466;53.574;9.976;2023-05-14T02:16:27;5.63;;;5.13;;
14748;SDS011;7466;53.574;9.976;2023-05-14T02:18:53;6.30;;;5.20;;
14748;SDS011;7466;53.574;9.976;2023-05-14T02:21:20;6.00;;;5.40;;
14748;SDS011;7466;53.574;9.976;2023-05-14T02:23:47;10.30;;;5.43;;
14748;SDS011;7466;53.574;9.976;2023-05-14T02:26:15;5.80;;;5.30;;
14748;SDS011;7466;53.574;9.976;2023-05-14T02:28:43;6.77;;;5.30;;
14748;SDS011;7466;53.574;9.976;2023-05-14T02:31:10;6.00;;;5.60;;
14748;SDS011;7466;53.574;9.976;2023-05-14T02:33:37;9.23;;;5.90;;
14748;SDS011;7466;53.574;9.976;2023-05-14T02:36:04;5.90;;;5.40;;
14748;SDS011;7466;53.574;9.976;2023-05-14T02:38:30;6.30;;;5.70;;
14748;SDS011;7466;53.574;9.976;2023-05-14T02:40:57;5.90;;;5.40;;
14748;SDS011;7466;53.574;9.976;2023-05-14T02:43:24;6.30;;;5.53;;
14748;SDS011;7466;53.574;9.976;2023-05-14T02:45:52;5.63;;;5.17;;
14748;SDS011;7466;53.574;9.976;2023-05-14T02:48:18;6.50;;;5.33;;
14748;SDS011;7466;53.574;9.976;2023-05-14T02:50:45;5.80;;;5.37;;
14748;SDS011;7466;53.574;9.976;2023-05-14T02:53:13;8.57;;;5.30;;
14748;SDS011;7466;53.574;9.976;2023-05-14T02:55:39;6.20;;;5.70;;
14748;SDS011;7466;53.574;9.976;2023-05-14T02:58:06;5.67;;;5.27;;
14748;SDS011;7466;53.574;9.976;2023-05-14T03:00:33;5.97;;;5.43;;
14748;SDS011;7466;53.574;9.976;2023-05-14T03:03:01;6.00;;;5.53;;
14748;SDS011;7466;53.574;9.976;2023-05-14T03:05:28;6.60;;;6.00;;
14748;SDS011;7466;53.574;9.976;2023-05-14T03:07:54;6.63;;;5.60;;
14748;SDS011;7466;53.574;9.976;2023-05-14T03:10:21;6.53;;;5.93;;
14748;SDS011;7466;53.574;9.976;2023-05-14T03:12:48;6.47;;;5.87;;
14748;SDS011;7466;53.574;9.976;2023-05-14T03:15:14;6.17;;;5.50;;
14748;SDS011;7466;53.574;9.976;2023-05-14T03:17:41;6.83;;;6.07;;
14748;SDS011;7466;53.574;9.976;2023-05-14T03:20:10;9.57;;;5.93;;
14748;SDS011;7466;53.574;9.976;2023-05-14T03:22:38;7.97;;;6.30;;
14748;SDS011;7466;53.574;9.976;2023-05-14T03:25:05;6.77;;;6.13;;
14748;SDS011;7466;53.574;9.976;2023-05-14T03:27:32;6.27;;;5.87;;
14748;SDS011;7466;53.574;9.976;2023-05-14T03:29:58;8.10;;;5.67;;
14748;SDS011;7466;53.574;9.976;2023-05-14T03:32:25;6.40;;;5.90;;
14748;SDS011;7466;53.574;9.976;2023-05-14T03:34:52;6.50;;;6.00;;
14748;SDS011;7466;53.574;9.976;2023-05-14T03:37:21;6.27;;;5.77;;
14748;SDS011;7466;53.574;9.976;2023-05-14T03:39:48;6.50;;;5.93;;
14748;SDS011;7466;53.574;9.976;2023-05-14T03:42:14;6.27;;;5.73;;
14748;SDS011;7466;53.574;9.976;2023-05-14T03:44:41;6.83;;;6.23;;
14748;SDS011;7466;53.574;9.976;2023-05-14T03:47:08;7.50;;;5.90;;
14748;SDS011;7466;53.574;9.976;2023-05-14T03:49:35;6.63;;;6.13;;
14748;SDS011;7466;53.574;9.976;2023-05-14T03:52:02;7.07;;;6.30;;
14748;SDS011;7466;53.574;9.976;2023-05-14T03:54:30;6.87;;;6.30;;
14748;SDS011;7466;53.574;9.976;2023-05-14T03:56:57;6.80;;;6.20;;
14748;SDS011;7466;53.574;9.976;2023-05-14T03:59:24;6.80;;;6.20;;
14748;SDS011;7466;53.574;9.976;2023-05-14T04:01:51;6.43;;;5.93;;
14748;SDS011;7466;53.574;9.976;2023-05-14T04:04:17;10.20;;;5.97;;
14748;SDS011;7466;53.574;9.976;2023-05-14T04:06:44;7.23;;;5.87;;
14748;SDS011;7466;53.574;9.976;2023-05-14T04:09:11;6.23;;;5.73;;
14748;SDS011;7466;53.574;9.976;2023-05-14T04:11:39;6.63;;;5.93;;
14748;SDS011;7466;53.574;9.976;2023-05-14T04:14:06;6.27;;;5.67;;
14748;SDS011;7466;53.574;9.976;2023-05-14T04:16:33;9.07;;;6.10;;
14748;SDS011;7466;53.574;9.976;2023-05-14T04:19:00;6.60;;;5.97;;
14748;SDS011;7466;53.574;9.976;2023-05-14T04:21:27;6.47;;;5.97;;
14748;SDS011;7466;53.574;9.976;2023-05-14T04:23:54;6.77;;;6.07;;
14748;SDS011;7466;53.574;9.976;2023-05-14T04:26:21;8.80;;;5.80;;
14748;SDS011;7466;53.574;9.976;2023-05-14T04:28:49;7.00;;;6.23;;
14748;SDS011;7466;53.574;9.976;2023-05-14T04:31:16;7.23;;;5.63;;
14748;SDS011;7466;53.574;9.976;2023-05-14T04:33:43;6.60;;;6.00;;
14748;SDS011;7466;53.574;9.976;2023-05-14T04:36:10;6.47;;;5.73;;
14748;SDS011;7466;53.574;9.976;2023-05-14T04:38:36;6.47;;;5.90;;
14748;SDS011;7466;53.574;9.976;2023-05-14T04:41:03;6.60;;;6.00;;
14748;SDS011;7466;53.574;9.976;2023-05-14T04:43:31;6.23;;;5.73;;
14748;SDS011;7466;53.574;9.976;2023-05-14T04:45:59;7.10;;;6.40;;
14748;SDS011;7466;53.574;9.976;2023-05-14T04:48:25;6.13;;;5.60;;
14748;SDS011;7466;53.574;9.976;2023-05-14T04:50:52;7.03;;;6.53;;
14748;SDS011;7466;53.574;9.976;2023-05-14T04:53:19;7.73;;;5.97;;
14748;SDS011;7466;53.574;9.976;2023-05-14T04:55:46;7.20;;;6.20;;
14748;SDS011;7466;53.574;9.976;2023-05-14T04:58:12;7.67;;;6.27;;
14748;SDS011;7466;53.574;9.976;2023-05-14T05:00:39;9.43;;;6.77;;
14748;SDS011;7466;53.574;9.976;2023-05-14T05:03:07;7.07;;;6.47;;
14748;SDS011;7466;53.574;9.976;2023-05-14T05:05:34;6.77;;;6.27;;
14748;SDS011;7466;53.574;9.976;2023-05-14T05:08:01;7.57;;;6.87;;
14748;SDS011;7466;53.574;9.976;2023-05-14T05:10:28;6.87;;;6.27;;
14748;SDS011;7466;53.574;9.976;2023-05-14T05:12:54;7.53;;;6.77;;
14748;SDS011;7466;53.574;9.976;2023-05-14T05:15:21;7.00;;;6.10;;
14748;SDS011;7466;53.574;9.976;2023-05-14T05:17:48;7.27;;;6.73;;
14748;SDS011;7466;53.574;9.976;2023-05-14T05:20:16;7.37;;;6.70;;
14748;SDS011;7466;53.574;9.976;2023-05-14T05:22:43;8.40;;;6.73;;
14748;SDS011;7466;53.574;9.976;2023-05-14T05:25:09;7.70;;;7.00;;
14748;SDS011;7466;53.574;9.976;2023-05-14T05:27:36;7.97;;;5.73;;
14748;SDS011;7466;53.574;9.976;2023-05-14T05:30:04;7.00;;;6.50;;
14748;SDS011;7466;53.574;9.976;2023-05-14T05:32:32;7.20;;;6.60;;
14748;SDS011;7466;53.574;9.976;2023-05-14T05:34:59;6.80;;;6.30;;
14748;SDS011;7466;53.574;9.976;2023-05-14T05:37:27;6.77;;;6.20;;
14748;SDS011;7466;53.574;9.976;2023-05-14T05:39:54;7.40;;;5.90;;
14748;SDS011;7466;53.574;9.976;2023-05-14T05:42:22;10.47;;;6.50;;
14748;SDS011;7466;53.574;9.976;2023-05-14T05:44:50;7.47;;;5.80;;
14748;SDS011;7466;53.574;9.976;2023-05-14T05:47:16;8.17;;;6.60;;
14748;SDS011;7466;53.574;9.976;2023-05-14T05:49:43;7.13;;;6.53;;
14748;SDS011;7466;53.574;9.976;2023-05-14T05:52:10;9.03;;;6.03;;
14748;SDS011;7466;53.574;9.976;2023-05-14T05:54:38;7.00;;;6.30;;
14748;SDS011;7466;53.574;9.976;2023-05-14T05:57:05;6.90;;;6.30;;
14748;SDS011;7466;53.574;9.976;2023-05-14T05:59:31;6.87;;;6.17;;
14748;SDS011;7466;53.574;9.976;2023-05-14T06:02:00;6.60;;;6.00;;
14748;SDS011;7466;53.574;9.976;2023-05-14T06:04:27;8.07;;;6.17;;
14748;SDS011;7466;53.574;9.976;2023-05-14T06:06:54;7.27;;;6.60;;
14748;SDS011;7466;53.574;9.976;2023-05-14T06:09:20;7.90;;;6.47;;
14748;SDS011;7466;53.574;9.976;2023-05-14T06:11:49;6.37;;;5.80;;
14748;SDS011;7466;53.574;9.976;2023-05-14T06:14:16;6.63;;;6.03;;
14748;SDS011;7466;53.574;9.976;2023-05-14T06:16:42;7.00;;;6.30;;
14748;SDS011;7466;53.574;9.976;2023-05-14T06:19:09;8.57;;;5.97;;
14748;SDS011;7466;53.574;9.976;2023-05-14T06:21:36;6.20;;;5.80;;
14748;SDS011;7466;53.574;9.976;2023-05-14T06:24:03;7.00;;;6.43;;
14748;SDS011;7466;53.574;9.976;2023-05-14T06:26:31;6.10;;;5.57;;
14748;SDS011;7466;53.574;9.976;2023-05-14T06:28:59;6.87;;;6.23;;
14748;SDS011;7466;53.574;9.976;2023-05-14T06:31:26;6.70;;;6.10;;
14748;SDS011;7466;53.574;9.976;2023-05-14T06:33:53;6.10;;;5.60;;
14748;SDS011;7466;53.574;9.976;2023-05-14T06:36:20;5.53;;;5.03;;
14748;SDS011;7466;53.574;9.976;2023-05-14T06:38:46;5.63;;;5.20;;
14748;SDS011;7466;53.574;9.976;2023-05-14T06:41:13;8.17;;;5.63;;
14748;SDS011;7466;53.574;9.976;2023-05-14T06:43:40;5.90;;;5.50;;
14748;SDS011;7466;53.574;9.976;2023-05-14T06:46:08;6.27;;;5.47;;
14748;SDS011;7466;53.574;9.976;2023-05-14T06:48:34;5.73;;;5.20;;
14748;SDS011;7466;53.574;9.976;2023-05-14T06:51:01;6.30;;;5.80;;
14748;SDS011;7466;53.574;9.976;2023-05-14T06:53:28;5.47;;;5.07;;
14748;SDS011;7466;53.574;9.976;2023-05-14T06:55:55;5.57;;;5.27;;
14748;SDS011;7466;53.574;9.976;2023-05-14T06:58:22;5.63;;;5.13;;
14748;SDS011;7466;53.574;9.976;2023-05-14T07:00:49;9.07;;;4.90;;
14748;SDS011;7466;53.574;9.976;2023-05-14T07:03:17;5.27;;;4.87;;
14748;SDS011;7466;53.574;9.976;2023-05-14T07:05:43;5.90;;;5.30;;
14748;SDS011;7466;53.574;9.976;2023-05-14T07:08:10;5.93;;;5.03;;
14748;SDS011;7466;53.574;9.976;2023-05-14T07:10:38;5.77;;;4.90;;
14748;SDS011;7466;53.574;9.976;2023-05-14T07:13:05;5.70;;;5.20;;
14748;SDS011;7466;53.574;9.976;2023-05-14T07:15:32;5.77;;;4.70;;
14748;SDS011;7466;53.574;9.976;2023-05-14T07:17:59;5.07;;;4.67;;
14748;SDS011;7466;53.574;9.976;2023-05-14T07:20:27;4.67;;;4.43;;
14748;SDS011;7466;53.574;9.976;2023-05-14T07:22:54;5.07;;;4.67;;
14748;SDS011;7466;53.574;9.976;2023-05-14T07:25:21;5.27;;;4.77;;
14748;SDS011;7466;53.574;9.976;2023-05-14T07:27:48;5.20;;;4.10;;
14748;SDS011;7466;53.574;9.976;2023-05-14T07:30:14;4.47;;;4.17;;
14748;SDS011;7466;53.574;9.976;2023-05-14T07:32:41;4.50;;;4.20;;
14748;SDS011;7466;53.574;9.976;2023-05-14T07:35:08;4.40;;;4.00;;
14748;SDS011;7466;53.574;9.976;2023-05-14T07:37:37;4.50;;;4.10;;
14748;SDS011;7466;53.574;9.976;2023-05-14T07:40:04;4.37;;;4.07;;
14748;SDS011;7466;53.574;9.976;2023-05-14T07:42:31;6.97;;;4.10;;
14748;SDS011;7466;53.574;9.976;2023-05-14T07:44:58;5.03;;;4.23;;
14748;SDS011;7466;53.574;9.976;2023-05-14T07:47:25;4.50;;;4.10;;
14748;SDS011;7466;53.574;9.976;2023-05-14T07:49:53;7.03;;;4.20;;
14748;SDS011;7466;53.574;9.976;2023-05-14T07:52:20;6.13;;;4.13;;
14748;SDS011;7466;53.574;9.976;2023-05-14T07:54:48;4.83;;;4.50;;
14748;SDS011;7466;53.574;9.976;2023-05-14T07:57:16;5.70;;;4.20;;
14748;SDS011;7466;53.574;9.976;2023-05-14T07:59:42;4.40;;;3.97;;
14748;SDS011;7466;53.574;9.976;2023-05-14T08:02:12;4.60;;;4.13;;
14748;SDS011;7466;53.574;9.976;2023-05-14T08:04:40;4.37;;;3.97;;
14748;SDS011;7466;53.574;9.976;2023-05-14T08:07:07;4.40;;;3.87;;
14748;SDS011;7466;53.574;9.976;2023-05-14T08:09:34;5.87;;;3.90;;
14748;SDS011;7466;53.574;9.976;2023-05-14T08:12:02;4.43;;;4.10;;
14748;SDS011;7466;53.574;9.976;2023-05-14T08:14:30;4.10;;;3.80;;
14748;SDS011;7466;53.574;9.976;2023-05-14T08:16:57;4.40;;;4.00;;
14748;SDS011;7466;53.574;9.976;2023-05-14T08:19:23;5.60;;;4.27;;
14748;SDS011;7466;53.574;9.976;2023-05-14T08:21:52;4.10;;;3.80;;
14748;SDS011;7466;53.574;9.976;2023-05-14T08:24:19;5.90;;;4.07;;
14748;SDS011;7466;53.574;9.976;2023-05-14T08:26:46;5.77;;;4.17;;
14748;SDS011;7466;53.574;9.976;2023-05-14T08:29:14;5.33;;;4.30;;
14748;SDS011;7466;53.574;9.976;2023-05-14T08:31:41;4.63;;;4.20;;
14748;SDS011;7466;53.574;9.976;2023-05-14T08:34:07;3.67;;;3.37;;
14748;SDS011;7466;53.574;9.976;2023-05-14T08:36:34;4.80;;;3.87;;
14748;SDS011;7466;53.574;9.976;2023-05-14T08:39:01;4.57;;;3.80;;
14748;SDS011;7466;53.574;9.976;2023-05-14T08:41:28;6.53;;;3.83;;
14748;SDS011;7466;53.574;9.976;2023-05-14T08:43:56;4.18;;;3.78;;
14748;SDS011;7466;53.574;9.976;2023-05-14T08:46:32;4.32;;;3.70;;
14748;SDS011;7466;53.574;9.976;2023-05-14T08:49:03;4.60;;;4.20;;
14748;SDS011;7466;53.574;9.976;2023-05-14T08:51:39;5.43;;;4.03;;
14748;SDS011;7466;53.574;9.976;2023-05-14T08:54:07;5.25;;;3.70;;
14748;SDS011;7466;53.574;9.976;2023-05-14T08:56:34;3.90;;;3.58;;
14748;SDS011;7466;53.574;9.976;2023-05-14T08:59:03;4.45;;;3.58;;
14748;SDS011;7466;53.574;9.976;2023-05-14T09:01:30;6.30;;;3.17;;
14748;SDS011;7466;53.574;9.976;2023-05-14T09:03:58;3.38;;;3.17;;
14748;SDS011;7466;53.574;9.976;2023-05-14T09:06:30;3.85;;;3.20;;
14748;SDS011;7466;53.574;9.976;2023-05-14T09:08:58;3.20;;;2.92;;
14748;SDS011;7466;53.574;9.976;2023-05-14T09:11:25;5.10;;;3.13;;
14748;SDS011;7466;53.574;9.976;2023-05-14T09:13:51;3.58;;;3.38;;
14748;SDS011;7466;53.574;9.976;2023-05-14T09:16:18;3.33;;;3.10;;
14748;SDS011;7466;53.574;9.976;2023-05-14T09:18:47;4.85;;;3.22;;
14748;SDS011;7466;53.574;9.976;2023-05-14T09:21:16;3.65;;;3.28;;
14748;SDS011;7466;53.574;9.976;2023-05-14T09:23:43;3.70;;;3.40;;
14748;SDS011;7466;53.574;9.976;2023-05-14T09:26:14;6.13;;;3.35;;
14748;SDS011;7466;53.574;9.976;2023-05-14T09:28:42;4.75;;;3.03;;
14748;SDS011;7466;53.574;9.976;2023-05-14T09:31:09;4.88;;;3.10;;
14748;SDS011;7466;53.574;9.976;2023-05-14T09:33:36;3.90;;;3.20;;
14748;SDS011;7466;53.574;9.976;2023-05-14T09:36:04;3.40;;;3.10;;
14748;SDS011;7466;53.574;9.976;2023-05-14T09:38:31;7.35;;;3.33;;
14748;SDS011;7466;53.574;9.976;2023-05-14T09:40:59;5.03;;;3.00;;
14748;SDS011;7466;53.574;9.976;2023-05-14T09:43:25;3.83;;;3.20;;
14748;SDS011;7466;53.574;9.976;2023-05-14T09:45:52;5.00;;;3.30;;
14748;SDS011;7466;53.574;9.976;2023-05-14T09:48:19;5.82;;;2.90;;
14748;SDS011;7466;53.574;9.976;2023-05-14T09:50:46;4.95;;;3.15;;
14748;SDS011;7466;53.574;9.976;2023-05-14T09:53:15;4.63;;;2.88;;
14748;SDS011;7466;53.574;9.976;2023-05-14T09:55:41;3.22;;;2.72;;
14748;SDS011;7466;53.574;9.976;2023-05-14T09:58:08;3.75;;;3.20;;
14748;SDS011;7466;53.574;9.976;2023-05-14T10:00:36;3.47;;;2.90;;
14748;SDS011;7466;53.574;9.976;2023-05-14T10:03:03;3.03;;;2.67;;
14748;SDS011;7466;53.574;9.976;2023-05-14T10:05:31;4.07;;;3.03;;
14748;SDS011;7466;53.574;9.976;2023-05-14T10:08:00;9.07;;;3.13;;
14748;SDS011;7466;53.574;9.976;2023-05-14T10:10:32;3.78;;;3.25;;
14748;SDS011;7466;53.574;9.976;2023-05-14T10:13:03;3.20;;;2.78;;
14748;SDS011;7466;53.574;9.976;2023-05-14T10:15:32;3.47;;;3.13;;
14748;SDS011;7466;53.574;9.976;2023-05-14T10:18:12;3.22;;;3.03;;
14748;SDS011;7466;53.574;9.976;2023-05-14T10:20:42;3.05;;;2.83;;
14748;SDS011;7466;53.574;9.976;2023-05-14T10:23:12;5.20;;;2.80;;
14748;SDS011;7466;53.574;9.976;2023-05-14T10:25:41;7.68;;;3.22;;
14748;SDS011;7466;53.574;9.976;2023-05-14T10:28:08;4.72;;;2.92;;
14748;SDS011;7466;53.574;9.976;2023-05-14T10:30:35;3.50;;;3.20;;
14748;SDS011;7466;53.574;9.976;2023-05-14T10:33:10;3.58;;;3.22;;
14748;SDS011;7466;53.574;9.976;2023-05-14T10:36:00;3.70;;;3.40;;
14748;SDS011;7466;53.574;9.976;2023-05-14T10:38:28;5.53;;;3.22;;
14748;SDS011;7466;53.574;9.976;2023-05-14T10:40:59;4.03;;;3.20;;
14748;SDS011;7466;53.574;9.976;2023-05-14T10:43:27;3.70;;;3.05;;
14748;SDS011;7466;53.574;9.976;2023-05-14T10:45:56;3.42;;;3.05;;
14748;SDS011;7466;53.574;9.976;2023-05-14T10:48:23;3.45;;;3.15;;
14748;SDS011;7466;53.574;9.976;2023-05-14T10:50:51;3.10;;;2.78;;
14748;SDS011;7466;53.574;9.976;2023-05-14T10:53:18;7.00;;;3.28;;
14748;SDS011;7466;53.574;9.976;2023-05-14T10:55:46;3.22;;;2.90;;
14748;SDS011;7466;53.574;9.976;2023-05-14T10:58:14;3.40;;;3.17;;
14748;SDS011;7466;53.574;9.976;2023-05-14T11:00:41;4.13;;;3.13;;
14748;SDS011;7466;53.574;9.976;2023-05-14T11:03:07;4.35;;;3.35;;
14748;SDS011;7466;53.574;9.976;2023-05-14T11:05:37;3.72;;;3.00;;
14748;SDS011;7466;53.574;9.976;2023-05-14T11:08:07;5.40;;;3.10;;
14748;SDS011;7466;53.574;9.976;2023-05-14T11:10:34;6.03;;;5.10;;
14748;SDS011;7466;53.574;9.976;2023-05-14T11:13:01;8.57;;;5.57;;
14748;SDS011;7466;53.574;9.976;2023-05-14T11:15:29;3.15;;;2.85;;
14748;SDS011;7466;53.574;9.976;2023-05-14T11:17:56;3.65;;;3.10;;
14748;SDS011;7466;53.574;9.976;2023-05-14T11:20:23;5.85;;;3.45;;
14748;SDS011;7466;53.574;9.976;2023-05-14T11:22:50;5.38;;;3.20;;
14748;SDS011;7466;53.574;9.976;2023-05-14T11:25:17;5.78;;;3.40;;
14748;SDS011;7466;53.574;9.976;2023-05-14T11:27:44;4.30;;;3.05;;
14748;SDS011;7466;53.574;9.976;2023-05-14T11:30:13;3.63;;;2.70;;
14748;SDS011;7466;53.574;9.976;2023-05-14T11:32:41;4.32;;;3.17;;
14748;SDS011;7466;53.574;9.976;2023-05-14T11:35:09;3.75;;;2.97;;
14748;SDS011;7466;53.574;9.976;2023-05-14T11:37:36;3.38;;;3.08;;
14748;SDS011;7466;53.574;9.976;2023-05-14T11:40:05;5.97;;;2.90;;
14748;SDS011;7466;53.574;9.976;2023-05-14T11:42:34;4.28;;;3.28;;
14748;SDS011;7466;53.574;9.976;2023-05-14T11:45:02;3.90;;;3.40;;
14748;SDS011;7466;53.574;9.976;2023-05-14T11:47:29;3.65;;;3.30;;
14748;SDS011;7466;53.574;9.976;2023-05-14T11:49:58;2.95;;;2.75;;
14748;SDS011;7466;53.574;9.976;2023-05-14T11:52:25;3.05;;;2.78;;
14748;SDS011;7466;53.574;9.976;2023-05-14T11:54:52;3.15;;;2.95;;
14748;SDS011;7466;53.574;9.976;2023-05-14T11:57:19;4.80;;;3.30;;
14748;SDS011;7466;53.574;9.976;2023-05-14T11:59:47;4.80;;;3.15;;
14748;SDS011;7466;53.574;9.976;2023-05-14T12:02:15;5.00;;;2.90;;
14748;SDS011;7466;53.574;9.976;2023-05-14T12:04:43;4.57;;;3.42;;
14748;SDS011;7466;53.574;9.976;2023-05-14T12:07:16;4.30;;;2.95;;
14748;SDS011;7466;53.574;9.976;2023-05-14T12:09:44;6.20;;;3.30;;
14748;SDS011;7466;53.574;9.976;2023-05-14T12:12:13;9.68;;;3.42;;
14748;SDS011;7466;53.574;9.976;2023-05-14T12:14:41;4.43;;;3.05;;
14748;SDS011;7466;53.574;9.976;2023-05-14T12:17:13;3.95;;;3.47;;
14748;SDS011;7466;53.574;9.976;2023-05-14T12:19:44;6.47;;;3.10;;
14748;SDS011;7466;53.574;9.976;2023-05-14T12:22:13;3.53;;;3.22;;
14748;SDS011;7466;53.574;9.976;2023-05-14T12:27:20;3.85;;;3.13;;
14748;SDS011;7466;53.574;9.976;2023-05-14T12:29:47;3.53;;;3.22;;
14748;SDS011;7466;53.574;9.976;2023-05-14T12:32:17;4.88;;;3.00;;
14748;SDS011;7466;53.574;9.976;2023-05-14T12:34:44;6.72;;;3.17;;
14748;SDS011;7466;53.574;9.976;2023-05-14T12:37:11;3.05;;;2.83;;
14748;SDS011;7466;53.574;9.976;2023-05-14T12:39:37;3.00;;;2.80;;
14748;SDS011;7466;53.574;9.976;2023-05-14T12:42:06;3.20;;;3.00;;
14748;SDS011;7466;53.574;9.976;2023-05-14T12:44:33;5.18;;;2.90;;
14748;SDS011;7466;53.574;9.976;2023-05-14T12:46:59;5.75;;;3.03;;
14748;SDS011;7466;53.574;9.976;2023-05-14T12:49:26;4.85;;;3.92;;
14748;SDS011;7466;53.574;9.976;2023-05-14T12:51:54;2.83;;;2.65;;
14748;SDS011;7466;53.574;9.976;2023-05-14T12:54:21;4.43;;;2.95;;
14748;SDS011;7466;53.574;9.976;2023-05-14T12:56:48;3.38;;;2.65;;
14748;SDS011;7466;53.574;9.976;2023-05-14T12:59:16;5.95;;;3.22;;
14748;SDS011;7466;53.574;9.976;2023-05-14T13:01:44;5.45;;;2.72;;
14748;SDS011;7466;53.574;9.976;2023-05-14T13:04:14;5.15;;;2.80;;
14748;SDS011;7466;53.574;9.976;2023-05-14T13:06:40;5.30;;;3.00;;
14748;SDS011;7466;53.574;9.976;2023-05-14T13:09:07;6.10;;;2.90;;
14748;SDS011;7466;53.574;9.976;2023-05-14T13:11:34;3.05;;;2.80;;
14748;SDS011;7466;53.574;9.976;2023-05-14T13:14:01;4.38;;;3.20;;
14748;SDS011;7466;53.574;9.976;2023-05-14T13:16:29;4.10;;;3.00;;
14748;SDS011;7466;53.574;9.976;2023-05-14T13:18:56;6.55;;;3.05;;
14748;SDS011;7466;53.574;9.976;2023-05-14T13:21:23;3.28;;;2.88;;
14748;SDS011;7466;53.574;9.976;2023-05-14T13:23:50;5.07;;;3.10;;
14748;SDS011;7466;53.574;9.976;2023-05-14T13:26:17;4.05;;;2.85;;
14748;SDS011;7466;53.574;9.976;2023-05-14T13:28:43;4.50;;;2.90;;
14748;SDS011;7466;53.574;9.976;2023-05-14T13:31:11;4.07;;;3.20;;
14748;SDS011;7466;53.574;9.976;2023-05-14T13:33:40;4.38;;;2.80;;
14748;SDS011;7466;53.574;9.976;2023-05-14T13:36:08;3.80;;;2.95;;
14748;SDS011;7466;53.574;9.976;2023-05-14T13:38:36;6.07;;;2.70;;
14748;SDS011;7466;53.574;9.976;2023-05-14T13:41:03;3.42;;;2.97;;
14748;SDS011;7466;53.574;9.976;2023-05-14T13:43:32;5.25;;;2.80;;
14748;SDS011;7466;53.574;9.976;2023-05-14T13:46:00;5.15;;;2.88;;
14748;SDS011;7466;53.574;9.976;2023-05-14T13:48:28;6.18;;;2.95;;
14748;SDS011;7466;53.574;9.976;2023-05-14T13:50:57;2.97;;;2.75;;
14748;SDS011;7466;53.574;9.976;2023-05-14T13:53:24;3.28;;;3.00;;
14748;SDS011;7466;53.574;9.976;2023-05-14T13:55:53;3.13;;;2.70;;
14748;SDS011;7466;53.574;9.976;2023-05-14T13:58:26;4.53;;;2.58;;
14748;SDS011;7466;53.574;9.976;2023-05-14T14:00:53;4.72;;;2.80;;
14748;SDS011;7466;53.574;9.976;2023-05-14T14:03:20;2.80;;;2.63;;
14748;SDS011;7466;53.574;9.976;2023-05-14T14:05:47;5.53;;;2.72;;
14748;SDS011;7466;53.574;9.976;2023-05-14T14:08:15;4.43;;;2.60;;
14748;SDS011;7466;53.574;9.976;2023-05-14T14:10:42;3.95;;;2.40;;
14748;SDS011;7466;53.574;9.976;2023-05-14T14:13:09;4.32;;;2.70;;
14748;SDS011;7466;53.574;9.976;2023-05-14T14:15:36;3.60;;;2.53;;
14748;SDS011;7466;53.574;9.976;2023-05-14T14:18:03;3.58;;;3.00;;
14748;SDS011;7466;53.574;9.976;2023-05-14T14:20:29;4.05;;;2.65;;
14748;SDS011;7466;53.574;9.976;2023-05-14T14:22:56;3.30;;;2.90;;
14748;SDS011;7466;53.574;9.976;2023-05-14T14:25:25;3.60;;;3.13;;
14748;SDS011;7466;53.574;9.976;2023-05-14T14:27:51;3.25;;;2.95;;
14748;SDS011;7466;53.574;9.976;2023-05-14T14:30:18;3.20;;;2.80;;
14748;SDS011;7466;53.574;9.976;2023-05-14T14:32:45;2.85;;;2.60;;
14748;SDS011;7466;53.574;9.976;2023-05-14T14:35:13;3.17;;;2.83;;
14748;SDS011;7466;53.574;9.976;2023-05-14T14:37:44;5.07;;;3.00;;
14748;SDS011;7466;53.574;9.976;2023-05-14T14:40:14;3.00;;;2.80;;
14748;SDS011;7466;53.574;9.976;2023-05-14T14:42:43;4.07;;;3.38;;
14748;SDS011;7466;53.574;9.976;2023-05-14T14:45:10;3.35;;;2.70;;
14748;SDS011;7466;53.574;9.976;2023-05-14T14:47:43;4.90;;;2.85;;
14748;SDS011;7466;53.574;9.976;2023-05-14T14:50:12;4.45;;;3.13;;
14748;SDS011;7466;53.574;9.976;2023-05-14T14:52:39;5.38;;;3.28;;
14748;SDS011;7466;53.574;9.976;2023-05-14T14:55:08;6.38;;;3.10;;
14748;SDS011;7466;53.574;9.976;2023-05-14T14:57:35;6.18;;;3.28;;
14748;SDS011;7466;53.574;9.976;2023-05-14T15:00:03;5.45;;;2.90;;
14748;SDS011;7466;53.574;9.976;2023-05-14T15:02:31;3.25;;;3.00;;
14748;SDS011;7466;53.574;9.976;2023-05-14T15:04:58;3.40;;;3.05;;